Time;durP1;ratioP1;P1;durP2;ratioP2;P2;SDS_P1;SDS_P2;PMS_P1;PMS_P2;Temp;Humidity;BMP_temperature;BMP_pressure;BME280_temperature;BME280_humidity;BME280_pressure;Samples;Min_cycle;Max_cycle;Signal;HPM_P1;HPM_P2
2022/07/22 00:01:30;;;;;;;3.80;3.40;;;29.10;38.90;;;;;;5087741;28;45305;-70
2022/07/22 00:03:58;;;;;;;3.53;3.22;;;29.10;38.90;;;;;;5087133;28;46414;-71
2022/07/22 00:06:25;;;;;;;3.70;3.17;;;29.10;38.90;;;;;;5087160;28;45312;-70
2022/07/22 00:08:53;;;;;;;3.42;3.05;;;29.00;39.00;;;;;;5087297;28;45130;-70
2022/07/22 00:11:19;;;;;;;4.05;3.65;;;29.00;39.00;;;;;;5087276;27;45294;-70
2022/07/22 00:13:46;;;;;;;4.32;3.70;;;29.00;39.00;;;;;;5087096;28;45295;-70
2022/07/22 00:16:13;;;;;;;3.58;3.22;;;29.00;39.10;;;;;;5087146;28;45287;-71
2022/07/22 00:18:40;;;;;;;5.95;3.83;;;28.90;39.10;;;;;;5087185;28;45249;-70
2022/07/22 00:21:07;;;;;;;4.97;4.22;;;28.90;39.20;;;;;;5086649;28;45374;-70
2022/07/22 00:23:34;;;;;;;4.30;3.97;;;28.90;39.80;;;;;;5086705;28;45233;-70
2022/07/22 00:26:02;;;;;;;5.03;4.50;;;28.90;39.20;;;;;;5087004;28;45258;-70
2022/07/22 00:28:29;;;;;;;4.40;4.00;;;28.90;39.20;;;;;;5087037;28;45236;-70
2022/07/22 00:30:56;;;;;;;4.05;3.70;;;28.90;39.10;;;;;;5066819;28;45450;-70
2022/07/22 00:33:23;;;;;;;4.68;4.15;;;28.80;39.20;;;;;;5066444;28;45300;-70
2022/07/22 00:35:50;;;;;;;5.15;4.55;;;28.80;39.20;;;;;;5070419;28;45301;-70
2022/07/22 00:38:17;;;;;;;5.13;4.65;;;28.80;39.20;;;;;;5086842;28;45380;-70
2022/07/22 00:40:43;;;;;;;5.47;4.97;;;28.70;39.30;;;;;;5086866;28;45408;-70
2022/07/22 00:43:12;;;;;;;5.53;4.68;;;28.80;39.40;;;;;;5086748;28;45446;-70
2022/07/22 00:45:39;;;;;;;5.93;5.32;;;28.70;39.30;;;;;;5086818;28;45115;-70
2022/07/22 00:48:06;;;;;;;6.43;5.50;;;28.70;39.30;;;;;;5087009;28;45240;-70
2022/07/22 00:50:33;;;;;;;5.60;5.10;;;28.70;39.40;;;;;;5086947;28;45307;-71
2022/07/22 00:52:59;;;;;;;7.47;6.28;;;28.70;39.30;;;;;;5086627;28;45232;-70
2022/07/22 00:55:26;;;;;;;6.55;5.57;;;28.60;39.40;;;;;;5086531;28;45250;-70
2022/07/22 00:57:53;;;;;;;7.28;5.60;;;28.60;39.40;;;;;;5086659;28;45126;-70
2022/07/22 01:00:22;;;;;;;6.32;5.57;;;28.60;39.30;;;;;;5086895;28;44729;-70
2022/07/22 01:02:48;;;;;;;6.30;5.70;;;28.60;39.40;;;;;;5086584;28;45280;-70
2022/07/22 01:05:15;;;;;;;6.93;6.22;;;28.60;39.40;;;;;;5086340;28;45337;-70
2022/07/22 01:07:42;;;;;;;7.40;5.60;;;28.50;39.50;;;;;;5086009;28;45185;-70
2022/07/22 01:10:09;;;;;;;8.65;6.10;;;28.50;39.50;;;;;;5086716;28;45181;-70
2022/07/22 01:12:36;;;;;;;9.68;6.57;;;28.50;39.50;;;;;;5086330;28;45222;-70
2022/07/22 01:15:02;;;;;;;8.23;6.25;;;28.50;39.50;;;;;;5086305;28;45246;-70
2022/07/22 01:17:31;;;;;;;7.75;6.22;;;28.50;39.50;;;;;;5086374;28;45319;-70
2022/07/22 01:20:01;;;;;;;8.18;6.75;;;28.50;39.60;;;;;;5086601;28;45166;-71
2022/07/22 01:22:28;;;;;;;7.93;6.18;;;28.40;39.60;;;;;;5086283;28;45403;-70
2022/07/22 01:24:55;;;;;;;8.48;6.68;;;28.40;39.60;;;;;;5089690;28;45288;-70
2022/07/22 01:27:22;;;;;;;8.05;6.70;;;28.40;39.70;;;;;;5089847;28;45163;-70
2022/07/22 01:29:48;;;;;;;7.68;6.70;;;28.40;39.70;;;;;;5089897;28;45397;-70
2022/07/22 01:32:15;;;;;;;7.72;6.53;;;28.40;39.70;;;;;;5089610;28;46373;-70
2022/07/22 01:34:43;;;;;;;8.98;6.35;;;28.30;39.60;;;;;;5089638;28;45299;-70
2022/07/22 01:37:11;;;;;;;7.80;6.95;;;28.30;39.70;;;;;;5089605;28;45268;-70
2022/07/22 01:39:38;;;;;;;8.20;6.50;;;28.30;39.80;;;;;;5089780;28;45429;-70
2022/07/22 01:42:05;;;;;;;7.00;6.30;;;28.30;39.80;;;;;;5089442;28;45301;-70
2022/07/22 01:44:32;;;;;;;9.38;7.28;;;28.30;39.80;;;;;;5089284;28;45295;-71
2022/07/22 01:46:59;;;;;;;8.40;7.30;;;28.30;39.70;;;;;;5089627;28;45286;-71
2022/07/22 01:49:26;;;;;;;8.77;6.70;;;28.30;39.80;;;;;;5089590;28;45325;-71
2022/07/22 01:51:52;;;;;;;9.60;7.00;;;28.20;39.80;;;;;;5089328;28;45218;-70
2022/07/22 01:54:21;;;;;;;8.63;7.03;;;28.20;39.80;;;;;;5088584;28;45183;-70
2022/07/22 01:56:47;;;;;;;9.07;7.20;;;28.20;39.80;;;;;;5089588;28;45248;-70
2022/07/22 01:59:14;;;;;;;7.95;7.13;;;28.20;39.90;;;;;;5089464;28;45392;-70
2022/07/22 02:01:41;;;;;;;7.97;7.00;;;28.10;39.70;;;;;;5089173;28;47617;-70
2022/07/22 02:04:08;;;;;;;9.02;6.70;;;28.10;39.80;;;;;;5089071;28;45175;-70
2022/07/22 02:06:35;;;;;;;7.65;6.75;;;28.10;39.70;;;;;;5089479;28;45203;-70
2022/07/22 02:09:02;;;;;;;8.80;6.53;;;28.10;39.80;;;;;;5089262;28;45442;-70
2022/07/22 02:11:30;;;;;;;8.38;6.93;;;28.10;39.90;;;;;;5089143;28;45327;-70
2022/07/22 02:13:57;;;;;;;7.85;6.57;;;28.00;39.90;;;;;;5088893;28;45325;-70
2022/07/22 02:16:24;;;;;;;9.70;6.38;;;28.00;39.90;;;;;;5089054;28;45188;-70
2022/07/22 02:18:50;;;;;;;7.65;6.22;;;28.00;39.90;;;;;;5089152;28;45546;-70
2022/07/22 02:21:18;;;;;;;7.50;6.65;;;28.00;39.90;;;;;;5088748;28;47335;-70
2022/07/22 02:23:44;;;;;;;7.93;6.75;;;28.00;39.90;;;;;;5089011;28;45249;-70
2022/07/22 02:26:11;;;;;;;8.43;6.47;;;27.90;40.00;;;;;;5088950;28;45220;-70
2022/07/22 02:28:39;;;;;;;7.72;6.55;;;27.90;40.10;;;;;;5088995;28;45408;-70
2022/07/22 02:31:06;;;;;;;9.27;6.85;;;27.90;40.00;;;;;;5088689;28;45225;-70
2022/07/22 02:33:33;;;;;;;7.30;6.50;;;27.90;39.90;;;;;;5088499;28;45217;-69
2022/07/22 02:36:00;;;;;;;7.10;6.40;;;27.90;40.10;;;;;;5088721;28;45313;-70
2022/07/22 02:38:27;;;;;;;7.32;6.35;;;27.90;40.00;;;;;;5088555;28;45294;-70
2022/07/22 02:40:53;;;;;;;7.03;5.93;;;27.80;40.00;;;;;;5087757;28;46663;-70
2022/07/22 02:43:20;;;;;;;7.47;6.55;;;27.80;39.90;;;;;;5088405;28;45236;-70
2022/07/22 02:45:48;;;;;;;6.57;5.93;;;27.80;39.90;;;;;;5088393;28;45198;-70
2022/07/22 02:48:15;;;;;;;7.93;6.45;;;27.80;40.00;;;;;;5088588;28;45336;-70
2022/07/22 02:50:46;;;;;;;7.30;5.95;;;27.80;40.10;;;;;;5088342;28;47284;-70
2022/07/22 02:53:13;;;;;;;8.70;6.45;;;27.70;40.00;;;;;;5088314;28;45252;-70
2022/07/22 02:55:40;;;;;;;8.45;6.28;;;27.80;40.10;;;;;;5088430;28;45311;-70
2022/07/22 02:58:06;;;;;;;7.30;6.38;;;27.70;40.10;;;;;;5088501;28;45283;-70
2022/07/22 03:00:33;;;;;;;7.85;5.90;;;27.70;40.10;;;;;;5087996;28;45202;-69
2022/07/22 03:03:02;;;;;;;6.60;5.90;;;27.70;40.30;;;;;;5088090;28;45210;-70
2022/07/22 03:05:28;;;;;;;7.70;5.72;;;27.70;40.20;;;;;;5088146;28;45325;-70
2022/07/22 03:07:55;;;;;;;6.57;5.82;;;27.60;40.20;;;;;;5088259;28;45229;-70
2022/07/22 03:10:22;;;;;;;6.80;6.10;;;27.60;40.20;;;;;;5087788;28;46627;-70
2022/07/22 03:12:49;;;;;;;7.55;5.65;;;27.60;40.30;;;;;;5087781;28;45155;-70
2022/07/22 03:15:16;;;;;;;6.07;5.47;;;27.60;40.30;;;;;;5088350;28;45262;-70
2022/07/22 03:17:42;;;;;;;7.07;5.75;;;27.60;40.20;;;;;;5088047;28;45171;-69
2022/07/22 03:20:12;;;;;;;6.70;5.80;;;27.60;40.30;;;;;;5087802;28;46452;-69
2022/07/22 03:22:42;;;;;;;7.10;6.35;;;27.50;40.80;;;;;;5087819;28;45352;-70
2022/07/22 03:25:09;;;;;;;6.10;5.50;;;27.50;40.20;;;;;;5087921;28;45297;-69
2022/07/22 03:27:36;;;;;;;6.22;5.60;;;27.50;40.30;;;;;;5087362;28;45402;-70
2022/07/22 03:30:03;;;;;;;6.65;5.47;;;27.50;40.40;;;;;;5087409;28;45245;-70
2022/07/22 03:32:30;;;;;;;6.00;5.40;;;27.50;40.40;;;;;;5087712;28;45253;-70
2022/07/22 03:34:56;;;;;;;5.93;5.40;;;27.40;40.40;;;;;;5087684;28;45190;-70
2022/07/22 03:37:25;;;;;;;6.38;5.43;;;27.40;40.30;;;;;;5087715;28;45388;-70
2022/07/22 03:39:51;;;;;;;6.38;5.35;;;27.40;40.30;;;;;;5086941;28;46563;-70
2022/07/22 03:42:18;;;;;;;6.70;5.30;;;27.40;40.30;;;;;;5087425;28;45288;-70
2022/07/22 03:44:46;;;;;;;5.60;5.00;;;27.40;40.50;;;;;;5087356;28;45277;-70
2022/07/22 03:47:13;;;;;;;5.90;5.30;;;27.40;40.40;;;;;;5086919;28;45276;-70
2022/07/22 03:49:40;;;;;;;6.00;5.38;;;27.30;40.50;;;;;;5087056;28;46403;-70
2022/07/22 03:52:07;;;;;;;6.45;5.32;;;27.30;40.50;;;;;;5087105;28;45462;-70
2022/07/22 03:54:35;;;;;;;5.82;5.28;;;27.30;40.50;;;;;;5087352;28;45300;-70
2022/07/22 03:57:01;;;;;;;6.18;5.50;;;27.30;40.50;;;;;;5087636;28;45182;-70
2022/07/22 03:59:28;;;;;;;5.70;5.10;;;27.30;40.60;;;;;;5087198;28;46401;-70
2022/07/22 04:01:55;;;;;;;5.72;5.13;;;27.30;40.40;;;;;;5087071;28;45256;-69
2022/07/22 04:04:22;;;;;;;5.28;4.78;;;27.30;40.50;;;;;;5087122;28;45256;-69
2022/07/22 04:06:51;;;;;;;5.85;4.97;;;27.20;40.40;;;;;;5087256;28;45356;-70
2022/07/22 04:09:17;;;;;;;5.47;4.88;;;27.20;40.50;;;;;;5086995;28;45195;-70
2022/07/22 04:11:46;;;;;;;5.18;4.68;;;27.20;40.50;;;;;;5087168;28;45256;-70
2022/07/22 04:14:12;;;;;;;6.32;5.40;;;27.20;40.60;;;;;;5086595;28;45283;-69
2022/07/22 04:16:39;;;;;;;5.20;4.70;;;27.20;40.60;;;;;;5087243;28;45255;-70
2022/07/22 04:19:06;;;;;;;6.22;5.40;;;27.20;40.70;;;;;;5086784;28;46733;-69
2022/07/22 04:21:33;;;;;;;6.00;4.72;;;27.10;40.50;;;;;;5086855;28;45293;-69
2022/07/22 04:24:00;;;;;;;5.68;4.88;;;27.20;40.60;;;;;;5087038;28;45188;-70
2022/07/22 04:26:26;;;;;;;5.75;5.07;;;27.10;40.70;;;;;;5086789;28;45238;-69
2022/07/22 04:28:54;;;;;;;5.75;5.20;;;27.10;40.60;;;;;;5085864;28;46371;-69
2022/07/22 04:31:22;;;;;;;5.22;4.72;;;27.10;40.60;;;;;;5086656;28;45179;-70
2022/07/22 04:33:48;;;;;;;7.38;4.93;;;27.10;40.70;;;;;;5086759;28;45212;-70
2022/07/22 04:36:15;;;;;;;5.25;4.70;;;27.10;40.90;;;;;;5086850;28;45360;-70
2022/07/22 04:38:42;;;;;;;5.82;4.57;;;27.00;40.70;;;;;;5086368;28;47291;-70
2022/07/22 04:41:09;;;;;;;6.10;4.53;;;27.00;40.70;;;;;;5086525;28;45253;-69
2022/07/22 04:43:35;;;;;;;5.40;4.65;;;27.00;40.80;;;;;;5086477;28;45139;-70
2022/07/22 04:46:05;;;;;;;5.32;4.82;;;27.00;40.80;;;;;;5086734;28;45232;-70
2022/07/22 04:48:31;;;;;;;5.03;4.47;;;27.00;40.80;;;;;;5086528;28;45287;-70
2022/07/22 04:51:00;;;;;;;4.88;4.47;;;27.00;40.90;;;;;;5086428;28;45388;-70
2022/07/22 04:53:27;;;;;;;5.30;4.38;;;27.00;40.90;;;;;;5086633;28;45179;-70
2022/07/22 04:55:53;;;;;;;5.35;4.65;;;26.90;40.90;;;;;;5086820;28;45170;-70
2022/07/22 04:58:20;;;;;;;5.00;4.50;;;26.90;40.90;;;;;;5087423;28;46431;-69
2022/07/22 05:00:47;;;;;;;5.00;4.50;;;26.90;41.60;;;;;;5089369;28;45298;-70
2022/07/22 05:03:15;;;;;;;4.75;4.25;;;26.90;40.90;;;;;;5090196;28;45244;-70
2022/07/22 05:05:42;;;;;;;5.07;4.57;;;26.90;41.00;;;;;;5090228;28;45202;-70
2022/07/22 05:08:09;;;;;;;4.97;4.47;;;26.90;41.00;;;;;;5089898;28;46432;-69
2022/07/22 05:10:36;;;;;;;4.38;3.95;;;26.90;41.20;;;;;;5089737;28;45277;-70
2022/07/22 05:13:02;;;;;;;5.00;4.50;;;26.90;41.20;;;;;;5089803;28;45305;-69
2022/07/22 05:15:29;;;;;;;4.50;4.10;;;26.90;41.30;;;;;;5089764;28;45404;-70
2022/07/22 05:17:56;;;;;;;4.40;4.00;;;26.80;41.20;;;;;;5089598;28;46290;-70
2022/07/22 05:20:24;;;;;;;4.60;4.07;;;26.80;41.20;;;;;;5089742;28;45194;-70
2022/07/22 05:22:51;;;;;;;4.97;4.10;;;26.80;41.30;;;;;;5089555;28;45316;-69
2022/07/22 05:25:18;;;;;;;5.75;4.50;;;26.80;41.40;;;;;;5089573;28;45511;-69
2022/07/22 05:27:50;;;;;;;5.50;4.78;;;26.80;41.50;;;;;;5089248;28;45494;-69
2022/07/22 05:30:17;;;;;;;4.50;4.10;;;26.80;41.50;;;;;;5089306;28;45359;-70
2022/07/22 05:32:44;;;;;;;5.43;4.13;;;26.80;41.50;;;;;;5089585;28;45363;-69
2022/07/22 05:35:11;;;;;;;5.28;4.22;;;26.80;41.50;;;;;;5089677;28;45397;-69
2022/07/22 05:37:39;;;;;;;4.50;4.10;;;26.70;41.50;;;;;;5088998;28;46402;-69
2022/07/22 05:40:07;;;;;;;4.72;4.30;;;26.70;41.60;;;;;;5089491;28;45384;-69
2022/07/22 05:42:34;;;;;;;4.10;3.80;;;26.80;41.70;;;;;;5089423;28;45296;-69
2022/07/22 05:45:01;;;;;;;4.60;4.20;;;26.80;41.70;;;;;;5089357;28;45167;-69
2022/07/22 05:47:28;;;;;;;5.15;4.32;;;26.80;41.60;;;;;;5088524;28;46398;-69
2022/07/22 05:49:55;;;;;;;4.30;4.00;;;26.70;41.50;;;;;;5089165;28;45278;-70
2022/07/22 05:52:21;;;;;;;4.38;3.90;;;26.80;41.70;;;;;;5089272;28;45134;-70
2022/07/22 05:54:50;;;;;;;4.07;3.78;;;26.70;41.60;;;;;;5089366;28;45283;-70
2022/07/22 05:57:16;;;;;;;5.38;4.07;;;26.70;41.60;;;;;;5088993;28;45253;-70
2022/07/22 05:59:43;;;;;;;4.28;3.88;;;26.70;41.60;;;;;;5088941;28;45139;-69
2022/07/22 06:02:10;;;;;;;4.68;4.28;;;26.80;41.70;;;;;;5089555;28;45185;-69
2022/07/22 06:04:37;;;;;;;4.65;4.25;;;26.70;41.60;;;;;;5089337;28;45487;-70
2022/07/22 06:07:06;;;;;;;4.25;3.85;;;26.70;41.70;;;;;;5088748;28;45335;-69
2022/07/22 06:09:34;;;;;;;4.93;3.95;;;26.80;41.60;;;;;;5088368;27;45272;-69
2022/07/22 06:12:02;;;;;;;4.20;3.80;;;26.80;42.10;;;;;;5089195;28;45523;-69
2022/07/22 06:14:29;;;;;;;5.07;3.95;;;26.70;42.60;;;;;;5088844;28;45406;-70
2022/07/22 06:16:56;;;;;;;3.95;3.65;;;26.80;42.10;;;;;;5088918;28;47595;-70
2022/07/22 06:19:24;;;;;;;4.57;3.97;;;26.80;42.10;;;;;;5088726;28;45261;-70
2022/07/22 06:21:50;;;;;;;4.05;3.75;;;26.80;42.00;;;;;;5088790;28;45276;-69
2022/07/22 06:24:17;;;;;;;4.35;3.95;;;26.80;41.90;;;;;;5088781;28;45242;-69
2022/07/22 06:26:44;;;;;;;4.05;3.75;;;26.80;42.10;;;;;;5088456;28;47447;-69
2022/07/22 06:29:12;;;;;;;5.13;3.78;;;26.80;42.00;;;;;;5088275;28;45300;-69
2022/07/22 06:31:39;;;;;;;4.63;4.22;;;26.80;42.10;;;;;;5088399;28;45207;-69
2022/07/22 06:34:06;;;;;;;4.20;3.90;;;26.80;42.00;;;;;;5088108;28;45297;-70
2022/07/22 06:36:33;;;;;;;4.70;4.25;;;26.80;42.00;;;;;;5088304;28;45463;-69
2022/07/22 06:38:59;;;;;;;4.30;3.90;;;26.80;42.00;;;;;;5087523;28;45501;-70
2022/07/22 06:41:26;;;;;;;3.88;3.58;;;26.80;42.00;;;;;;5088317;28;45246;-69
2022/07/22 06:43:53;;;;;;;4.38;3.97;;;26.70;42.10;;;;;;5088472;28;45237;-70
2022/07/22 06:46:21;;;;;;;4.30;3.90;;;26.70;42.10;;;;;;5087994;28;46525;-70
2022/07/22 06:48:56;;;;;;;5.30;4.00;;;26.70;42.10;;;;;;5088229;28;45286;-70
2022/07/22 06:51:22;;;;;;;4.60;4.05;;;26.80;42.10;;;;;;5088377;28;45284;-70
2022/07/22 06:53:49;;;;;;;4.72;3.78;;;26.80;42.00;;;;;;5088314;28;45225;-70
2022/07/22 06:56:16;;;;;;;3.80;3.47;;;26.80;42.70;;;;;;5088051;28;45477;-70
2022/07/22 06:58:43;;;;;;;4.28;3.88;;;26.80;42.10;;;;;;5088225;28;45260;-70
2022/07/22 07:01:09;;;;;;;4.45;3.83;;;26.80;42.10;;;;;;5088215;28;45190;-70
2022/07/22 07:03:38;;;;;;;4.53;4.13;;;26.80;42.20;;;;;;5088375;28;45514;-70
2022/07/22 07:06:05;;;;;;;4.70;4.30;;;26.80;42.10;;;;;;5087796;28;46399;-70
2022/07/22 07:08:32;;;;;;;4.28;3.90;;;26.80;42.10;;;;;;5088139;28;45198;-70
2022/07/22 07:10:59;;;;;;;4.60;4.15;;;26.80;42.10;;;;;;5088059;28;45212;-70
2022/07/22 07:13:25;;;;;;;4.40;4.00;;;26.80;42.20;;;;;;5088255;28;45143;-70
2022/07/22 07:15:52;;;;;;;4.30;3.92;;;26.90;42.20;;;;;;5087866;28;45464;-70
2022/07/22 07:18:19;;;;;;;3.80;3.50;;;26.90;42.30;;;;;;5088046;28;45343;-70
2022/07/22 07:20:48;;;;;;;4.75;3.70;;;26.90;42.30;;;;;;5086355;27;45303;-70
2022/07/22 07:23:15;;;;;;;4.07;3.67;;;26.90;42.90;;;;;;5087924;28;45467;-70
2022/07/22 07:25:41;;;;;;;4.50;4.10;;;26.90;42.30;;;;;;5087090;28;46395;-71
2022/07/22 07:28:08;;;;;;;4.45;4.07;;;26.90;42.30;;;;;;5087701;28;45279;-70
2022/07/22 07:30:35;;;;;;;4.18;3.50;;;27.00;42.40;;;;;;5087905;28;45230;-70
2022/07/22 07:33:02;;;;;;;4.38;3.65;;;27.00;42.30;;;;;;5088095;28;45232;-71
2022/07/22 07:35:29;;;;;;;4.50;4.10;;;27.00;42.30;;;;;;5087694;28;45575;-70
2022/07/22 07:37:57;;;;;;;4.22;3.85;;;27.00;42.40;;;;;;5087252;28;45209;-70
2022/07/22 07:40:24;;;;;;;4.28;3.85;;;27.10;42.40;;;;;;5087946;28;45295;-70
2022/07/22 07:42:51;;;;;;;5.47;3.92;;;27.10;42.40;;;;;;5087853;28;45313;-70
2022/07/22 07:45:18;;;;;;;4.22;3.78;;;27.10;42.30;;;;;;5087500;28;47247;-70
2022/07/22 07:47:45;;;;;;;4.55;4.15;;;27.10;42.30;;;;;;5087330;28;45252;-70
2022/07/22 07:50:12;;;;;;;4.45;4.03;;;27.10;42.40;;;;;;5087474;28;45232;-70
2022/07/22 07:52:39;;;;;;;4.30;3.90;;;27.20;42.30;;;;;;5087420;28;45412;-70
2022/07/22 07:55:08;;;;;;;3.72;3.38;;;27.20;42.20;;;;;;5087492;28;45721;-70
2022/07/22 07:57:35;;;;;;;4.30;3.90;;;27.20;42.10;;;;;;5087355;28;45188;-70
2022/07/22 08:00:02;;;;;;;3.78;3.50;;;27.20;42.20;;;;;;5087375;28;45201;-71
2022/07/22 08:02:29;;;;;;;3.95;3.60;;;27.30;42.30;;;;;;5087339;28;45373;-70
2022/07/22 08:04:55;;;;;;;5.20;3.63;;;27.30;42.10;;;;;;5087124;28;46404;-71
2022/07/22 08:07:22;;;;;;;4.10;3.70;;;27.30;42.10;;;;;;5086328;28;45245;-71
2022/07/22 08:09:49;;;;;;;4.13;3.72;;;27.30;42.00;;;;;;5087237;28;45167;-71
2022/07/22 08:12:17;;;;;;;4.75;4.30;;;27.30;42.10;;;;;;5087380;28;45467;-71
2022/07/22 08:14:44;;;;;;;4.05;3.60;;;27.30;42.00;;;;;;5087056;28;46567;-71
2022/07/22 08:17:11;;;;;;;4.32;3.92;;;27.40;42.00;;;;;;5087330;28;45415;-71
2022/07/22 08:19:38;;;;;;;4.28;3.88;;;27.40;42.00;;;;;;5087304;28;45211;-70
2022/07/22 08:22:05;;;;;;;4.68;3.92;;;27.40;41.90;;;;;;5087347;28;45198;-71
2022/07/22 08:24:32;;;;;;;4.32;3.92;;;27.40;41.90;;;;;;5087082;28;46633;-71
2022/07/22 08:26:59;;;;;;;4.07;3.67;;;27.40;41.90;;;;;;5086858;28;45280;-71
2022/07/22 08:29:27;;;;;;;5.15;4.30;;;27.40;41.90;;;;;;5087138;28;45426;-71
2022/07/22 08:31:53;;;;;;;8.35;5.30;;;27.40;42.50;;;;;;5087090;28;45457;-71
2022/07/22 08:34:20;;;;;;;5.25;4.75;;;27.40;44.40;;;;;;5086588;28;46351;-71
2022/07/22 08:36:47;;;;;;;6.63;5.18;;;27.40;44.50;;;;;;5082332;28;45428;-72
2022/07/22 08:39:14;;;;;;;5.18;4.68;;;27.40;45.30;;;;;;5085592;28;45483;-72
2022/07/22 08:41:41;;;;;;;5.05;4.63;;;27.40;45.40;;;;;;5087208;28;45538;-71
2022/07/22 08:44:09;;;;;;;5.88;5.38;;;27.40;45.10;;;;;;5086606;28;45261;-71
2022/07/22 08:46:37;;;;;;;6.03;5.05;;;27.40;45.60;;;;;;5083757;28;45367;-70
2022/07/22 08:49:06;;;;;;;5.03;4.53;;;27.40;45.70;;;;;;5085105;28;45411;-71
2022/07/22 08:51:33;;;;;;;5.90;5.30;;;27.40;46.20;;;;;;5085707;28;45173;-70
2022/07/22 08:54:00;;;;;;;6.82;5.50;;;27.40;46.40;;;;;;5084866;27;46667;-71
2022/07/22 08:56:27;;;;;;;6.10;5.25;;;27.50;46.80;;;;;;5085108;28;45339;-71
2022/07/22 08:58:54;;;;;;;6.00;5.43;;;27.50;46.30;;;;;;5085475;28;45384;-71
2022/07/22 09:01:21;;;;;;;6.38;5.68;;;27.50;46.60;;;;;;5086750;28;45233;-71
2022/07/22 09:03:50;;;;;;;6.00;5.07;;;27.50;47.00;;;;;;5086231;28;45271;-71
2022/07/22 09:06:17;;;;;;;6.20;5.60;;;27.50;46.60;;;;;;5085985;28;45336;-71
2022/07/22 09:08:54;;;;;;;5.63;5.05;;;27.50;46.60;;;;;;5086523;28;45351;-70
2022/07/22 09:11:22;;;;;;;6.05;4.88;;;27.50;46.50;;;;;;5075867;28;45496;-71
2022/07/22 09:13:49;;;;;;;5.18;4.68;;;27.60;46.40;;;;;;5085891;28;46398;-71
2022/07/22 09:16:16;;;;;;;5.28;4.78;;;27.60;46.20;;;;;;5085840;28;46208;-70
2022/07/22 09:18:49;;;;;;;5.47;5.00;;;27.60;46.50;;;;;;5086411;28;45380;-71
2022/07/22 09:21:16;;;;;;;6.35;5.30;;;27.70;46.60;;;;;;5069557;28;45247;-71
2022/07/22 09:23:43;;;;;;;8.07;5.38;;;27.70;47.00;;;;;;5086119;28;46409;-71
2022/07/22 09:26:09;;;;;;;5.90;4.75;;;27.70;46.70;;;;;;5079315;28;45423;-70
2022/07/22 09:28:38;;;;;;;5.75;5.15;;;27.70;46.30;;;;;;5084112;28;45512;-72
2022/07/22 09:31:05;;;;;;;5.55;5.05;;;27.80;46.80;;;;;;5082259;28;45412;-72
2022/07/22 09:33:32;;;;;;;5.50;5.00;;;27.80;46.50;;;;;;5085917;28;45728;-73
2022/07/22 09:36:04;;;;;;;6.65;5.03;;;27.90;46.70;;;;;;5085893;28;45304;-72
2022/07/22 09:38:34;;;;;;;5.13;4.72;;;27.90;46.30;;;;;;5085966;28;45400;-70
2022/07/22 09:41:02;;;;;;;5.90;5.38;;;28.00;46.10;;;;;;5086297;28;45314;-72
2022/07/22 09:43:34;;;;;;;6.00;5.15;;;28.00;46.80;;;;;;5086084;27;45543;-72
2022/07/22 09:46:01;;;;;;;6.20;5.15;;;28.10;46.30;;;;;;5089475;28;45356;-73
2022/07/22 09:48:28;;;;;;;6.18;4.90;;;28.10;46.20;;;;;;5089253;28;45293;-71
2022/07/22 09:50:56;;;;;;;7.82;5.53;;;28.10;45.70;;;;;;5089811;28;45195;-71
2022/07/22 09:53:26;;;;;;;5.40;4.90;;;28.20;46.40;;;;;;5084584;28;45930;-70
2022/07/22 09:55:53;;;;;;;5.82;4.82;;;28.20;45.90;;;;;;5089318;28;45237;-72
2022/07/22 09:58:20;;;;;;;7.05;4.95;;;28.20;46.00;;;;;;5089461;28;45172;-71
2022/07/22 10:00:47;;;;;;;7.10;5.22;;;28.30;46.30;;;;;;5089454;28;45349;-71
2022/07/22 10:03:17;;;;;;;4.95;4.55;;;28.30;46.20;;;;;;5089207;28;45559;-70
2022/07/22 10:05:44;;;;;;;8.27;5.43;;;28.30;45.90;;;;;;5089215;28;45264;-70
2022/07/22 10:08:11;;;;;;;9.75;5.32;;;28.40;46.40;;;;;;5088760;28;45237;-70
2022/07/22 10:10:39;;;;;;;6.53;5.18;;;28.40;46.40;;;;;;5086283;28;45360;-70
2022/07/22 10:13:07;;;;;;;7.07;5.50;;;28.40;46.60;;;;;;5087745;28;45356;-72
2022/07/22 10:15:34;;;;;;;7.45;5.38;;;28.50;46.70;;;;;;5087908;28;45470;-70
2022/07/22 10:18:06;;;;;;;6.95;5.20;;;28.50;46.50;;;;;;5087690;28;45382;-70
2022/07/22 10:20:33;;;;;;;5.93;5.32;;;28.50;46.50;;;;;;5087918;28;45221;-70
2022/07/22 10:23:00;;;;;;;6.13;4.72;;;28.60;46.30;;;;;;5087090;28;46732;-70
2022/07/22 10:25:28;;;;;;;6.05;5.45;;;28.60;46.00;;;;;;5088049;28;45368;-70
2022/07/22 10:27:58;;;;;;;5.95;5.07;;;28.60;46.50;;;;;;5088331;28;45315;-71
2022/07/22 10:30:26;;;;;;;6.25;5.57;;;28.60;46.00;;;;;;5082811;28;45448;-70
2022/07/22 10:33:06;;;;;;;7.68;5.50;;;28.70;46.20;;;;;;5086106;28;45281;-71
2022/07/22 10:35:33;;;;;;;9.23;5.47;;;28.70;46.40;;;;;;5085304;28;45436;-70
2022/07/22 10:38:02;;;;;;;6.10;5.15;;;28.70;46.30;;;;;;5083598;28;45383;-70
2022/07/22 10:40:30;;;;;;;7.03;5.78;;;28.80;46.20;;;;;;5088348;28;45361;-70
2022/07/22 10:43:14;;;;;;;6.68;5.20;;;28.80;46.30;;;;;;5087289;28;45380;-70
2022/07/22 10:45:43;;;;;;;7.45;5.20;;;28.90;46.40;;;;;;5088012;28;45387;-71
2022/07/22 10:48:11;;;;;;;7.38;5.45;;;28.90;47.00;;;;;;5087663;28;45267;-70
2022/07/22 10:50:46;;;;;;;6.28;5.68;;;29.00;46.50;;;;;;5087584;28;45128;-71
2022/07/22 10:53:14;;;;;;;6.03;5.45;;;29.10;46.50;;;;;;5087304;28;45474;-70
2022/07/22 10:55:59;;;;;;;5.95;5.38;;;29.00;46.40;;;;;;5087591;27;45514;-72
2022/07/22 10:58:52;;;;;;;7.50;5.30;;;29.10;46.30;;;;;;5087617;28;45379;-71
2022/07/22 11:01:21;;;;;;;6.05;5.45;;;29.10;46.20;;;;;;5088630;28;45562;-72
2022/07/22 11:03:49;;;;;;;6.13;5.47;;;29.20;46.10;;;;;;5088815;28;45241;-71
2022/07/22 11:06:17;;;;;;;5.93;5.32;;;29.30;45.90;;;;;;5067310;28;45219;-71
2022/07/22 11:08:45;;;;;;;9.27;5.22;;;29.30;45.90;;;;;;5067646;28;45362;-71
2022/07/22 11:11:12;;;;;;;8.15;5.47;;;29.40;45.80;;;;;;5071269;28;45480;-71
2022/07/22 11:13:40;;;;;;;6.35;5.75;;;29.40;45.50;;;;;;5087014;28;45279;-71
2022/07/22 11:16:20;;;;;;;5.60;5.07;;;29.50;45.30;;;;;;5088228;28;45180;-71
2022/07/22 11:18:52;;;;;;;6.07;5.05;;;29.50;45.10;;;;;;5087963;28;45248;-72
2022/07/22 11:21:20;;;;;;;5.85;5.25;;;29.60;45.20;;;;;;5088083;28;45415;-71
2022/07/22 11:23:48;;;;;;;6.82;5.05;;;29.70;45.10;;;;;;5087893;28;45321;-71
2022/07/22 11:26:21;;;;;;;7.05;5.22;;;29.70;45.00;;;;;;5087829;28;45317;-71
2022/07/22 11:28:48;;;;;;;5.93;5.43;;;29.80;44.80;;;;;;5088280;28;45359;-71
2022/07/22 11:31:15;;;;;;;6.40;5.78;;;29.90;44.90;;;;;;5089647;28;45244;-71
2022/07/22 11:33:44;;;;;;;5.88;5.28;;;29.90;44.90;;;;;;5089694;28;46350;-70
2022/07/22 11:36:11;;;;;;;5.93;5.35;;;30.00;45.00;;;;;;5088464;28;45281;-71
2022/07/22 11:38:45;;;;;;;9.05;6.15;;;30.00;44.90;;;;;;5086521;28;45306;-71
2022/07/22 11:41:12;;;;;;;5.95;5.45;;;30.10;45.00;;;;;;5087963;28;45362;-72
2022/07/22 11:43:43;;;;;;;5.60;5.18;;;30.20;44.80;;;;;;5088652;28;45461;-72
2022/07/22 11:46:10;;;;;;;6.28;5.38;;;30.20;44.70;;;;;;5085240;28;45380;-71
2022/07/22 11:48:38;;;;;;;6.55;5.57;;;30.30;44.70;;;;;;5087611;28;45366;-72
2022/07/22 11:51:06;;;;;;;6.35;5.75;;;30.40;44.60;;;;;;5088099;28;45208;-73
2022/07/22 11:53:33;;;;;;;6.30;5.70;;;30.50;44.50;;;;;;5087847;28;46471;-71
2022/07/22 11:56:01;;;;;;;6.25;5.72;;;30.60;44.60;;;;;;5087429;28;45331;-72
2022/07/22 11:58:41;;;;;;;6.75;5.85;;;30.60;44.40;;;;;;5087838;28;45294;-73
2022/07/22 12:01:09;;;;;;;6.22;5.63;;;30.60;43.90;;;;;;5088226;28;45296;-72
2022/07/22 12:03:36;;;;;;;5.72;5.22;;;30.70;44.10;;;;;;5087992;28;45297;-73
2022/07/22 12:06:04;;;;;;;6.53;5.40;;;30.80;44.20;;;;;;5088195;28;45304;-73
2022/07/22 12:08:33;;;;;;;7.38;6.18;;;30.80;43.80;;;;;;5086135;28;45369;-72
2022/07/22 12:11:00;;;;;;;8.98;5.65;;;30.90;43.70;;;;;;5085547;28;45539;-72
2022/07/22 12:13:30;;;;;;;7.13;5.60;;;30.90;43.80;;;;;;5086052;28;46183;-72
2022/07/22 12:15:57;;;;;;;7.43;6.07;;;31.00;43.80;;;;;;5085289;28;45599;-72
2022/07/22 12:18:26;;;;;;;6.85;6.15;;;31.00;43.60;;;;;;5088403;28;45301;-72
2022/07/22 12:20:53;;;;;;;9.65;5.80;;;31.10;43.70;;;;;;5088793;28;45394;-71
2022/07/22 12:23:20;;;;;;;6.18;5.65;;;31.20;43.50;;;;;;5087755;28;46390;-72
2022/07/22 12:25:53;;;;;;;9.23;6.00;;;31.30;43.50;;;;;;5087508;27;45174;-72
2022/07/22 12:28:19;;;;;;;6.93;5.85;;;31.30;43.30;;;;;;5085235;28;45356;-73
2022/07/22 12:30:46;;;;;;;8.57;6.10;;;31.40;43.40;;;;;;5087583;28;45322;-73
2022/07/22 12:33:14;;;;;;;6.93;6.22;;;31.50;43.20;;;;;;5086206;28;45291;-73
2022/07/22 12:35:41;;;;;;;7.43;6.03;;;31.50;43.40;;;;;;5075708;28;45295;-72
2022/07/22 12:38:08;;;;;;;6.32;5.72;;;31.50;43.10;;;;;;5085290;28;45397;-73
2022/07/22 12:40:35;;;;;;;6.57;5.97;;;31.60;43.10;;;;;;5086735;28;45301;-72
2022/07/22 12:43:04;;;;;;;6.68;6.03;;;31.60;43.10;;;;;;5085784;28;46410;-73
2022/07/22 12:45:32;;;;;;;9.68;5.82;;;31.70;43.00;;;;;;5084091;28;45317;-72
2022/07/22 12:48:07;;;;;;;5.85;5.40;;;31.80;42.90;;;;;;5084292;28;45389;-73
2022/07/22 12:50:35;;;;;;;5.85;5.25;;;31.90;42.70;;;;;;5081800;28;45915;-73